Time;durP1;ratioP1;P1;durP2;ratioP2;P2;SDS_P1;SDS_P2;PMS_P1;PMS_P2;Temp;Humidity;BMP_temperature;BMP_pressure;BME280_temperature;BME280_humidity;BME280_pressure;Samples;Min_cycle;Max_cycle;Signal;HPM_P1;HPM_P2
2023/08/29 00:00:57;;;;;;;3.60;2.63;;;14.00;99.90;;;;;;5116500;28;20454;-91
2023/08/29 00:03:27;;;;;;;1.53;1.43;;;13.90;99.90;;;;;;5116174;28;20844;-92
2023/08/29 00:06:00;;;;;;;1.90;1.10;;;14.00;99.90;;;;;;5116240;28;20463;-91
2023/08/29 00:08:27;;;;;;;2.30;1.77;;;14.00;99.90;;;;;;5116219;28;20428;-91
2023/08/29 00:10:56;;;;;;;1.53;1.43;;;13.90;99.90;;;;;;5115898;28;20447;-91
2023/08/29 00:13:24;;;;;;;2.37;2.17;;;14.00;99.90;;;;;;5115921;28;20474;-91
2023/08/29 00:15:51;;;;;;;1.50;1.20;;;14.10;99.90;;;;;;5116070;28;20469;-91
2023/08/29 00:18:20;;;;;;;2.80;2.17;;;14.10;99.90;;;;;;5115779;28;20443;-91
2023/08/29 00:20:46;;;;;;;1.63;1.53;;;14.20;99.90;;;;;;5116012;28;20443;-91
2023/08/29 00:23:13;;;;;;;1.97;1.77;;;14.10;99.90;;;;;;5116080;28;20444;-91
2023/08/29 00:25:40;;;;;;;2.10;2.00;;;14.10;99.90;;;;;;5116000;28;20481;-91
2023/08/29 00:28:07;;;;;;;5.00;1.93;;;14.10;99.90;;;;;;5115909;28;20447;-92
2023/08/29 00:30:37;;;;;;;1.93;1.77;;;14.20;99.90;;;;;;5115874;28;20447;-91
2023/08/29 00:33:04;;;;;;;2.40;2.20;;;14.10;99.90;;;;;;5116017;27;20481;-91
2023/08/29 00:35:30;;;;;;;4.20;1.80;;;14.10;99.90;;;;;;5115515;28;20481;-92
2023/08/29 00:37:58;;;;;;;1.90;1.80;;;14.00;99.90;;;;;;5115657;28;20434;-92
2023/08/29 00:40:30;;;;;;;1.33;1.17;;;14.00;99.90;;;;;;5116092;28;20439;-92
2023/08/29 00:42:57;;;;;;;2.37;1.90;;;14.00;99.90;;;;;;5115584;28;20427;-91
2023/08/29 00:45:24;;;;;;;1.50;1.40;;;14.00;99.90;;;;;;5115425;28;20985;-92
2023/08/29 00:47:52;;;;;;;2.27;1.90;;;14.00;99.90;;;;;;5115444;28;21015;-92
2023/08/29 00:50:20;;;;;;;2.50;1.57;;;14.00;99.90;;;;;;5115816;28;20450;-92
2023/08/29 00:52:47;;;;;;;1.87;1.70;;;14.00;99.90;;;;;;5115542;28;21012;-92
2023/08/29 00:55:14;;;;;;;1.83;1.40;;;14.00;99.90;;;;;;5115267;28;20463;-92
2023/08/29 00:57:41;;;;;;;1.93;1.83;;;14.00;99.90;;;;;;5115467;28;20439;-93
2023/08/29 01:00:11;;;;;;;2.40;1.80;;;14.00;99.90;;;;;;5115402;28;20441;-92
2023/08/29 01:02:37;;;;;;;1.40;1.30;;;14.00;99.90;;;;;;5115070;28;20443;-92
2023/08/29 01:05:06;;;;;;;2.73;2.00;;;14.00;99.90;;;;;;5114466;28;20562;-92
2023/08/29 01:07:33;;;;;;;11.63;2.10;;;14.00;99.90;;;;;;5120749;28;20433;-92
2023/08/29 01:09:59;;;;;;;2.67;2.27;;;14.00;99.90;;;;;;5116212;28;20451;-93
2023/08/29 01:12:42;;;;;;;4.50;1.97;;;14.00;99.90;;;;;;5115214;28;20999;-92
2023/08/29 01:15:13;;;;;;;2.17;1.33;;;14.00;99.90;;;;;;5115410;28;20493;-92
2023/08/29 01:17:45;;;;;;;4.13;2.20;;;14.00;99.90;;;;;;5115416;28;20439;-92
2023/08/29 01:20:14;;;;;;;3.60;2.70;;;14.00;99.90;;;;;;5115228;28;20427;-92
2023/08/29 01:22:52;;;;;;;2.27;2.13;;;13.90;99.90;;;;;;5115180;28;20435;-93
2023/08/29 01:25:31;;;;;;;3.33;1.83;;;13.90;99.90;;;;;;5115449;28;20968;-93
2023/08/29 01:28:01;;;;;;;3.07;1.77;;;13.90;99.90;;;;;;5115032;28;20408;-93
2023/08/29 01:30:29;;;;;;;3.70;2.10;;;13.90;99.90;;;;;;5115279;28;20900;-93
2023/08/29 01:32:55;;;;;;;1.90;1.67;;;14.00;99.90;;;;;;5114599;28;20994;-92
2023/08/29 01:35:23;;;;;;;2.40;2.20;;;13.90;99.90;;;;;;5114862;28;20470;-92
2023/08/29 01:37:50;;;;;;;2.23;1.70;;;13.90;99.90;;;;;;5115175;28;20443;-92
2023/08/29 01:40:17;;;;;;;3.70;1.90;;;13.90;99.90;;;;;;5115031;28;20439;-93
2023/08/29 01:42:43;;;;;;;1.63;1.53;;;13.90;99.90;;;;;;5115215;28;20435;-93
2023/08/29 01:45:12;;;;;;;2.37;2.17;;;13.90;99.90;;;;;;5114832;28;20991;-92
2023/08/29 01:47:38;;;;;;;1.63;1.53;;;13.90;99.90;;;;;;5115033;28;20439;-92
2023/08/29 01:50:08;;;;;;;2.70;2.17;;;13.90;99.90;;;;;;5115096;28;20952;-93
2023/08/29 01:52:36;;;;;;;2.03;1.60;;;13.90;99.90;;;;;;5114975;28;20485;-93
2023/08/29 01:55:03;;;;;;;1.97;1.53;;;13.90;99.90;;;;;;5114872;28;20467;-93
2023/08/29 01:57:34;;;;;;;1.50;1.40;;;13.90;99.90;;;;;;5114804;28;20443;-92
2023/08/29 02:00:02;;;;;;;1.93;1.57;;;14.00;99.90;;;;;;5114913;28;20431;-92
2023/08/29 02:02:30;;;;;;;2.13;1.77;;;14.00;99.90;;;;;;5114565;28;20954;-92
2023/08/29 02:04:57;;;;;;;1.73;1.63;;;14.00;99.90;;;;;;5114329;28;20999;-93
2023/08/29 02:07:24;;;;;;;2.03;1.43;;;13.90;99.90;;;;;;5114637;28;20451;-93
2023/08/29 02:09:51;;;;;;;1.47;1.37;;;14.10;99.90;;;;;;5114864;28;20477;-92
2023/08/29 02:12:18;;;;;;;2.30;1.70;;;14.10;99.90;;;;;;5114886;28;20493;-92
2023/08/29 02:14:45;;;;;;;2.13;1.90;;;14.00;99.90;;;;;;5114773;28;20446;-92
2023/08/29 02:17:11;;;;;;;2.07;1.93;;;14.00;99.90;;;;;;5115052;28;20457;-91
2023/08/29 02:19:39;;;;;;;2.37;2.10;;;14.00;99.90;;;;;;5118708;28;20445;-92
2023/08/29 02:22:06;;;;;;;2.87;2.10;;;14.00;99.90;;;;;;5118764;28;20512;-93
2023/08/29 02:24:33;;;;;;;2.33;1.50;;;14.00;99.90;;;;;;5118539;28;20435;-92
2023/08/29 02:27:00;;;;;;;2.23;1.70;;;14.00;99.90;;;;;;5118289;28;20446;-93
2023/08/29 02:29:26;;;;;;;2.87;2.10;;;14.10;99.90;;;;;;5118571;28;20446;-93
2023/08/29 02:31:53;;;;;;;1.93;1.83;;;14.00;99.90;;;;;;5118462;28;20447;-93
2023/08/29 02:34:20;;;;;;;1.03;0.90;;;14.00;99.90;;;;;;5118508;28;20447;-93
2023/08/29 02:36:48;;;;;;;4.87;2.90;;;14.00;99.90;;;;;;5118076;28;20978;-93
2023/08/29 02:39:15;;;;;;;3.93;2.23;;;14.10;99.90;;;;;;5123862;28;20443;-93
2023/08/29 02:41:41;;;;;;;1.60;1.50;;;14.00;99.90;;;;;;5118041;28;20439;-92
2023/08/29 02:44:08;;;;;;;2.07;1.87;;;14.00;99.90;;;;;;5118100;28;20439;-93
2023/08/29 02:46:35;;;;;;;3.90;2.93;;;14.00;99.90;;;;;;5118064;28;20555;-93
2023/08/29 02:49:02;;;;;;;3.27;2.23;;;14.00;99.90;;;;;;5117895;28;20432;-93
2023/08/29 02:51:29;;;;;;;6.30;2.77;;;14.00;99.90;;;;;;5117608;28;20443;-92
2023/08/29 02:53:57;;;;;;;2.23;1.87;;;14.10;99.90;;;;;;5117582;28;20486;-93
2023/08/29 02:56:24;;;;;;;2.47;2.10;;;14.00;99.90;;;;;;5117770;28;20488;-93
2023/08/29 02:58:52;;;;;;;3.23;1.93;;;13.90;99.90;;;;;;5117769;28;20526;-93
2023/08/29 03:01:19;;;;;;;2.07;1.87;;;13.90;99.90;;;;;;5117907;28;20450;-93
2023/08/29 03:03:45;;;;;;;7.90;3.27;;;13.90;99.90;;;;;;5117552;28;20841;-92
2023/08/29 03:06:12;;;;;;;4.07;2.47;;;14.00;99.90;;;;;;5117828;28;20461;-93
2023/08/29 03:08:39;;;;;;;2.57;2.17;;;13.90;99.90;;;;;;5117666;28;20447;-93
2023/08/29 03:11:07;;;;;;;3.37;2.43;;;13.90;99.90;;;;;;5117676;28;20443;-94
2023/08/29 03:13:34;;;;;;;4.00;2.27;;;14.00;99.90;;;;;;5117372;28;20514;-93
2023/08/29 03:16:00;;;;;;;2.70;2.30;;;14.00;99.90;;;;;;5117453;28;20971;-93
2023/08/29 03:18:27;;;;;;;3.13;2.20;;;14.00;99.90;;;;;;5117554;27;20439;-93
2023/08/29 03:20:54;;;;;;;2.10;1.87;;;14.00;99.90;;;;;;5116997;28;20447;-93
2023/08/29 03:23:21;;;;;;;4.03;2.03;;;14.00;99.90;;;;;;5117369;28;20447;-93
2023/08/29 03:25:48;;;;;;;2.97;2.73;;;14.00;99.90;;;;;;5117050;28;20466;-93
2023/08/29 03:28:16;;;;;;;2.47;2.27;;;14.10;99.90;;;;;;5116258;28;20496;-93
2023/08/29 03:30:44;;;;;;;2.77;2.20;;;14.00;99.90;;;;;;5116963;27;20440;-93
2023/08/29 03:33:10;;;;;;;3.07;2.27;;;14.20;99.90;;;;;;5117111;28;20485;-93
2023/08/29 03:35:37;;;;;;;2.97;1.97;;;14.00;99.90;;;;;;5117158;28;20462;-93
2023/08/29 03:38:04;;;;;;;8.27;2.63;;;14.00;99.90;;;;;;5116869;28;20496;-93
2023/08/29 03:40:31;;;;;;;2.97;2.67;;;14.00;99.90;;;;;;5116764;27;20443;-91
2023/08/29 03:42:58;;;;;;;7.70;2.60;;;14.00;99.90;;;;;;5116361;28;20451;-93
2023/08/29 03:45:26;;;;;;;9.37;3.10;;;14.00;99.90;;;;;;5116505;28;20471;-93
2023/08/29 03:47:52;;;;;;;2.80;2.60;;;14.00;99.90;;;;;;5116615;28;20447;-93
2023/08/29 03:50:21;;;;;;;5.30;2.57;;;14.00;99.90;;;;;;5116080;28;20944;-93
2023/08/29 03:52:47;;;;;;;3.60;2.90;;;13.90;99.90;;;;;;5116416;28;20912;-92
2023/08/29 03:55:14;;;;;;;3.00;2.40;;;13.90;99.90;;;;;;5116326;28;20466;-93
2023/08/29 03:57:41;;;;;;;6.07;3.37;;;13.90;99.90;;;;;;5116545;28;20451;-92
2023/08/29 04:00:10;;;;;;;3.67;3.37;;;13.90;99.90;;;;;;5116296;28;21023;-93
2023/08/29 04:02:39;;;;;;;3.73;2.20;;;13.90;99.90;;;;;;5116554;28;20841;-93
2023/08/29 04:05:14;;;;;;;3.43;3.13;;;13.90;99.90;;;;;;5115968;28;20479;-93
2023/08/29 04:07:41;;;;;;;3.87;2.87;;;13.90;99.90;;;;;;5117412;28;20423;-91
2023/08/29 04:10:08;;;;;;;3.13;2.87;;;13.90;99.90;;;;;;5116605;28;20442;-93
2023/08/29 04:12:35;;;;;;;5.50;3.40;;;13.90;99.90;;;;;;5116196;28;20451;-93
2023/08/29 04:15:02;;;;;;;4.63;2.67;;;13.90;99.90;;;;;;5116188;27;20462;-93
2023/08/29 04:17:29;;;;;;;10.10;3.93;;;13.90;99.90;;;;;;5116322;28;20450;-93
2023/08/29 04:19:58;;;;;;;4.20;3.00;;;13.90;99.90;;;;;;5115909;27;20447;-92
2023/08/29 04:22:24;;;;;;;4.93;3.20;;;13.80;99.90;;;;;;5115914;28;20450;-93
2023/08/29 04:24:52;;;;;;;3.50;3.13;;;13.90;99.90;;;;;;5115876;28;20516;-93
2023/08/29 04:27:20;;;;;;;3.93;2.70;;;13.90;99.90;;;;;;5115949;28;20447;-93
2023/08/29 04:29:46;;;;;;;5.60;3.80;;;13.90;99.90;;;;;;5115799;28;20471;-94
2023/08/29 04:32:13;;;;;;;6.77;4.00;;;13.90;99.90;;;;;;5115855;28;20451;-92
2023/08/29 04:34:40;;;;;;;5.07;3.30;;;13.90;99.90;;;;;;5115686;28;20479;-93
2023/08/29 04:37:08;;;;;;;4.93;3.20;;;13.90;99.90;;;;;;5115651;28;20816;-93
2023/08/29 04:39:35;;;;;;;7.20;4.10;;;13.90;99.90;;;;;;5115482;28;20439;-93
2023/08/29 04:42:02;;;;;;;9.27;3.97;;;13.90;99.90;;;;;;5115041;28;20439;-93
2023/08/29 04:44:30;;;;;;;4.27;3.20;;;13.90;99.90;;;;;;5115278;28;20940;-93
2023/08/29 04:46:57;;;;;;;3.87;2.73;;;13.90;99.90;;;;;;5115306;28;20477;-93
2023/08/29 04:49:24;;;;;;;5.50;2.90;;;13.90;99.90;;;;;;5115600;28;20441;-93
2023/08/29 04:51:50;;;;;;;4.07;3.03;;;13.80;99.90;;;;;;5115152;28;20435;-93
2023/08/29 04:54:18;;;;;;;6.03;3.20;;;14.50;99.90;;;;;;5115052;28;20479;-93
2023/08/29 04:56:45;;;;;;;3.40;2.70;;;13.90;99.90;;;;;;5115247;28;21009;-92
2023/08/29 04:59:12;;;;;;;6.77;3.87;;;13.80;99.90;;;;;;5115014;28;20458;-92
2023/08/29 05:01:39;;;;;;;5.40;3.70;;;13.90;99.90;;;;;;5115177;28;20439;-93
2023/08/29 05:04:07;;;;;;;11.37;3.67;;;13.90;99.90;;;;;;5114877;28;20478;-92
2023/08/29 05:06:34;;;;;;;2.90;2.17;;;13.80;99.90;;;;;;5115167;28;20468;-93
2023/08/29 05:09:01;;;;;;;4.17;2.53;;;13.90;99.90;;;;;;5115381;28;20447;-93
2023/08/29 05:11:29;;;;;;;5.30;3.20;;;13.90;99.90;;;;;;5115338;28;20450;-92
2023/08/29 05:13:56;;;;;;;4.90;3.27;;;13.90;99.90;;;;;;5115005;28;20478;-93
2023/08/29 05:16:23;;;;;;;2.87;1.93;;;13.90;99.90;;;;;;5114951;28;20459;-93
2023/08/29 05:18:49;;;;;;;5.40;3.20;;;13.90;99.90;;;;;;5114963;28;20438;-92
2023/08/29 05:21:16;;;;;;;5.90;4.20;;;13.90;99.90;;;;;;5115016;27;20449;-92
2023/08/29 05:23:43;;;;;;;5.13;4.07;;;13.90;99.90;;;;;;5114995;28;20443;-92
2023/08/29 05:26:10;;;;;;;6.33;3.03;;;13.90;99.90;;;;;;5115039;28;20455;-93
2023/08/29 05:28:38;;;;;;;3.20;2.90;;;13.90;99.90;;;;;;5114964;28;20439;-93
2023/08/29 05:31:05;;;;;;;4.50;2.80;;;13.90;99.90;;;;;;5114765;28;20797;-92
2023/08/29 05:33:31;;;;;;;4.77;3.60;;;13.90;99.90;;;;;;5114776;28;20479;-93
2023/08/29 05:35:58;;;;;;;3.67;2.90;;;13.90;99.90;;;;;;5114766;28;20463;-93
2023/08/29 05:38:27;;;;;;;4.60;3.57;;;14.00;99.90;;;;;;5114787;28;20443;-94
2023/08/29 05:40:54;;;;;;;5.80;3.93;;;13.90;99.90;;;;;;5114955;28;20451;-94
2023/08/29 05:43:20;;;;;;;4.20;3.80;;;13.90;99.90;;;;;;5114992;28;20442;-95
2023/08/29 05:45:49;;;;;;;9.73;5.20;;;13.90;99.90;;;;;;5114974;28;20459;-95
2023/08/29 05:48:15;;;;;;;6.07;4.20;;;13.90;99.90;;;;;;5115531;28;20442;-94
2023/08/29 05:50:42;;;;;;;4.30;3.17;;;13.80;99.90;;;;;;5114767;28;20440;-92
2023/08/29 05:53:09;;;;;;;6.27;3.13;;;13.80;99.90;;;;;;5118127;28;20439;-92
2023/08/29 05:55:36;;;;;;;4.67;4.13;;;13.80;99.90;;;;;;5118587;28;20455;-92
2023/08/29 05:58:02;;;;;;;7.13;4.40;;;13.80;99.90;;;;;;5119020;28;20438;-92
2023/08/29 06:00:30;;;;;;;8.13;4.93;;;13.80;99.90;;;;;;5119234;28;20449;-92
2023/08/29 06:02:59;;;;;;;7.00;3.90;;;13.80;99.90;;;;;;5118563;28;20438;-90
2023/08/29 06:05:27;;;;;;;8.20;3.77;;;13.80;99.90;;;;;;5118693;28;20467;-90
2023/08/29 06:07:54;;;;;;;6.30;4.10;;;13.90;99.90;;;;;;5118512;28;20492;-90
2023/08/29 06:10:20;;;;;;;4.57;3.40;;;13.80;99.90;;;;;;5119181;28;20435;-90
2023/08/29 06:12:47;;;;;;;7.50;4.07;;;13.80;99.90;;;;;;5118431;28;20962;-90
2023/08/29 06:15:14;;;;;;;4.50;3.10;;;13.80;99.90;;;;;;5118186;28;20532;-90
2023/08/29 06:17:41;;;;;;;14.30;4.03;;;13.80;99.90;;;;;;5118272;27;20446;-90
2023/08/29 06:20:11;;;;;;;5.47;3.73;;;13.80;99.90;;;;;;5118268;27;20439;-90
2023/08/29 06:22:38;;;;;;;5.40;4.00;;;13.80;99.90;;;;;;5118171;28;20857;-90
2023/08/29 06:25:05;;;;;;;6.40;3.50;;;13.70;99.90;;;;;;5118121;28;20451;-90
2023/08/29 06:27:33;;;;;;;5.73;3.80;;;13.80;99.90;;;;;;5118113;28;20518;-89
2023/08/29 06:30:00;;;;;;;5.13;4.40;;;13.80;99.90;;;;;;5117263;28;20447;-87
2023/08/29 06:32:26;;;;;;;4.20;3.40;;;13.80;99.90;;;;;;5117111;28;20442;-86
2023/08/29 06:34:52;;;;;;;4.77;3.50;;;13.80;99.90;;;;;;5117847;28;20478;-87
2023/08/29 06:37:21;;;;;;;6.63;3.60;;;13.70;99.90;;;;;;5117306;28;20197;-87
2023/08/29 06:39:48;;;;;;;8.73;4.37;;;13.70;99.90;;;;;;5117101;28;20487;-87
2023/08/29 06:42:15;;;;;;;5.30;4.30;;;13.70;99.90;;;;;;5117358;27;20800;-88
2023/08/29 06:44:41;;;;;;;6.90;3.93;;;13.70;99.90;;;;;;5117005;28;20453;-88
2023/08/29 06:47:08;;;;;;;4.50;3.50;;;13.50;99.90;;;;;;5117262;27;20431;-88
2023/08/29 06:49:35;;;;;;;5.27;3.23;;;13.60;99.90;;;;;;5117113;28;20432;-87
2023/08/29 06:52:01;;;;;;;6.37;3.93;;;13.70;99.90;;;;;;5116824;27;20435;-87
2023/08/29 06:54:30;;;;;;;6.97;4.90;;;13.60;99.90;;;;;;5116770;28;20466;-88
2023/08/29 06:56:56;;;;;;;4.50;2.80;;;13.60;99.90;;;;;;5117604;28;20477;-87
2023/08/29 06:59:23;;;;;;;5.40;3.37;;;13.70;99.90;;;;;;5116996;28;20442;-87
2023/08/29 07:01:50;;;;;;;6.17;4.00;;;13.60;99.90;;;;;;5116826;28;20823;-87
2023/08/29 07:04:16;;;;;;;5.90;3.50;;;13.60;99.90;;;;;;5115317;28;20476;-87
2023/08/29 07:06:43;;;;;;;5.67;3.97;;;13.60;99.90;;;;;;5116627;28;20489;-87
2023/08/29 07:09:10;;;;;;;15.00;3.70;;;13.70;99.90;;;;;;5116522;28;20875;-87
2023/08/29 07:11:38;;;;;;;3.80;3.40;;;13.70;99.90;;;;;;5116265;28;20434;-87
2023/08/29 07:14:05;;;;;;;8.33;5.03;;;13.60;99.90;;;;;;5116503;28;20486;-87
2023/08/29 07:16:31;;;;;;;15.27;3.17;;;13.60;99.90;;;;;;5116437;27;20489;-87
2023/08/29 07:18:59;;;;;;;4.10;3.00;;;13.60;99.90;;;;;;5116067;28;20936;-87
2023/08/29 07:21:26;;;;;;;5.47;4.00;;;13.60;99.90;;;;;;5116350;27;20492;-87
2023/08/29 07:23:54;;;;;;;3.40;2.97;;;13.60;99.90;;;;;;5116959;28;20530;-86
2023/08/29 07:26:20;;;;;;;6.00;3.83;;;13.50;99.90;;;;;;5115819;28;20516;-86
2023/08/29 07:28:49;;;;;;;5.90;3.10;;;13.50;99.90;;;;;;5115532;28;20447;-86
2023/08/29 07:31:17;;;;;;;6.97;3.50;;;13.60;99.90;;;;;;5115736;28;20439;-85
2023/08/29 07:33:44;;;;;;;5.97;4.00;;;13.50;99.90;;;;;;5115213;28;21060;-85
2023/08/29 07:36:11;;;;;;;5.23;3.80;;;13.60;99.90;;;;;;5115140;28;20461;-84
2023/08/29 07:38:38;;;;;;;3.97;2.40;;;13.50;99.90;;;;;;5115527;28;20443;-85
2023/08/29 07:41:04;;;;;;;5.40;3.70;;;13.60;99.90;;;;;;5115386;28;20439;-85
2023/08/29 07:43:31;;;;;;;4.87;3.37;;;13.60;99.90;;;;;;5115405;28;20802;-85
2023/08/29 07:45:59;;;;;;;3.73;3.10;;;13.60;99.90;;;;;;5115291;27;20466;-85
2023/08/29 07:48:26;;;;;;;7.93;4.33;;;13.50;99.90;;;;;;5115012;28;20944;-84
2023/08/29 07:50:53;;;;;;;4.03;3.70;;;13.60;99.90;;;;;;5114976;28;20450;-85
2023/08/29 07:53:20;;;;;;;7.17;3.60;;;13.60;99.90;;;;;;5115218;28;20443;-85
2023/08/29 07:55:47;;;;;;;5.73;3.43;;;13.60;99.90;;;;;;5115157;27;20851;-84
2023/08/29 07:58:13;;;;;;;5.43;3.50;;;13.60;99.90;;;;;;5115217;28;20816;-85
2023/08/29 08:00:40;;;;;;;3.93;3.53;;;13.60;99.90;;;;;;5115135;28;20455;-85
2023/08/29 08:03:08;;;;;;;4.10;3.57;;;13.60;99.90;;;;;;5114677;28;20450;-85
2023/08/29 08:05:35;;;;;;;7.40;3.67;;;13.60;99.90;;;;;;5115132;28;20843;-84
2023/08/29 08:08:02;;;;;;;13.67;4.20;;;14.00;99.90;;;;;;5115183;28;20819;-85
2023/08/29 08:10:28;;;;;;;8.27;3.97;;;13.60;99.90;;;;;;5114758;28;20439;-85
2023/08/29 08:12:55;;;;;;;4.80;3.73;;;13.70;99.90;;;;;;5115081;28;20450;-85
2023/08/29 08:15:22;;;;;;;6.33;4.17;;;13.80;99.90;;;;;;5114651;27;20483;-84
2023/08/29 08:17:49;;;;;;;6.53;3.73;;;13.80;99.90;;;;;;5114953;28;20826;-85
2023/08/29 08:20:17;;;;;;;4.57;4.07;;;13.90;99.90;;;;;;5114447;28;20546;-85
2023/08/29 08:22:44;;;;;;;7.03;4.37;;;13.90;99.90;;;;;;5114602;28;20447;-85
2023/08/29 08:25:11;;;;;;;5.20;3.23;;;13.90;99.90;;;;;;5114463;28;20462;-85
2023/08/29 08:27:40;;;;;;;4.47;3.60;;;13.90;99.90;;;;;;5114787;28;20447;-85
2023/08/29 08:30:08;;;;;;;5.53;3.83;;;14.80;99.90;;;;;;5114723;28;20479;-85
2023/08/29 08:32:35;;;;;;;7.20;4.13;;;14.00;99.90;;;;;;5114684;28;20492;-85
2023/08/29 08:35:04;;;;;;;4.27;3.20;;;14.00;99.90;;;;;;5114457;28;20483;-85
2023/08/29 08:37:33;;;;;;;6.33;4.13;;;14.00;99.90;;;;;;5114120;28;20956;-86
2023/08/29 08:40:00;;;;;;;4.80;4.10;;;14.00;99.90;;;;;;5114949;28;20518;-87
2023/08/29 08:42:28;;;;;;;7.27;4.40;;;13.90;99.90;;;;;;5114420;28;20453;-85
2023/08/29 08:44:55;;;;;;;5.00;3.30;;;13.90;99.90;;;;;;5114371;28;20446;-85
2023/08/29 08:47:22;;;;;;;5.90;3.70;;;14.00;99.90;;;;;;5114418;28;20443;-85
2023/08/29 08:49:49;;;;;;;5.07;3.37;;;14.00;99.90;;;;;;5114197;28;20443;-85
2023/08/29 08:52:17;;;;;;;4.13;3.60;;;14.00;99.90;;;;;;5114319;28;20443;-85
2023/08/29 08:54:45;;;;;;;4.53;3.10;;;14.00;99.90;;;;;;5113819;28;20490;-85
2023/08/29 08:57:13;;;;;;;4.77;3.63;;;14.00;99.90;;;;;;5114231;28;20435;-84
2023/08/29 08:59:41;;;;;;;5.73;3.93;;;14.00;99.90;;;;;;5114159;28;20443;-85
2023/08/29 09:02:11;;;;;;;8.70;5.40;;;14.00;99.90;;;;;;5114183;28;20447;-85
2023/08/29 09:04:38;;;;;;;5.70;4.70;;;14.00;99.90;;;;;;5113631;28;20475;-82
2023/08/29 09:07:05;;;;;;;7.03;5.53;;;14.00;99.90;;;;;;5113998;28;20477;-85
2023/08/29 09:09:32;;;;;;;7.17;4.77;;;14.10;99.90;;;;;;5113915;28;20442;-85
2023/08/29 09:12:00;;;;;;;8.10;4.77;;;14.10;99.90;;;;;;5113923;28;20450;-85
2023/08/29 09:14:27;;;;;;;7.67;5.27;;;14.10;99.90;;;;;;5113553;28;20508;-85
2023/08/29 09:16:54;;;;;;;4.47;3.93;;;14.10;99.90;;;;;;5113815;28;20467;-85
2023/08/29 09:19:22;;;;;;;5.00;3.93;;;14.20;99.90;;;;;;5113830;28;20496;-85
2023/08/29 09:21:49;;;;;;;7.13;4.20;;;14.30;99.90;;;;;;5113566;28;20478;-85
2023/08/29 09:24:22;;;;;;;7.30;4.50;;;14.30;99.90;;;;;;5114044;28;20435;-85
2023/08/29 09:26:49;;;;;;;7.20;4.37;;;14.30;99.90;;;;;;5116095;28;20971;-85
2023/08/29 09:29:19;;;;;;;6.17;3.70;;;14.30;99.90;;;;;;5120596;27;20454;-85
2023/08/29 09:31:46;;;;;;;4.77;4.00;;;14.20;99.90;;;;;;5120693;27;20434;-85
2023/08/29 09:34:25;;;;;;;4.50;4.10;;;14.20;99.90;;;;;;5120564;28;20492;-85
2023/08/29 09:36:53;;;;;;;4.33;3.57;;;14.20;99.90;;;;;;5120483;27;20810;-85
2023/08/29 09:39:20;;;;;;;7.80;4.40;;;14.20;99.90;;;;;;5120521;27;20806;-85
2023/08/29 09:41:59;;;;;;;6.67;4.27;;;14.20;99.90;;;;;;5120484;27;20492;-85
2023/08/29 09:44:27;;;;;;;5.00;3.77;;;14.10;99.90;;;;;;5120584;27;20427;-81
2023/08/29 09:46:53;;;;;;;5.70;3.93;;;14.10;99.90;;;;;;5120397;27;20454;-85
2023/08/29 09:49:20;;;;;;;5.23;3.90;;;14.10;99.90;;;;;;5120509;27;20814;-85
2023/08/29 09:51:49;;;;;;;5.17;4.33;;;14.10;99.90;;;;;;5120104;27;20443;-85
2023/08/29 09:54:20;;;;;;;8.70;4.23;;;14.10;99.90;;;;;;5120269;27;20496;-84
2023/08/29 09:56:46;;;;;;;5.07;3.93;;;14.20;99.90;;;;;;5120366;27;20450;-85
2023/08/29 09:59:18;;;;;;;6.00;4.57;;;14.20;99.90;;;;;;5120671;27;20451;-87
2023/08/29 10:01:50;;;;;;;6.27;3.80;;;14.30;99.90;;;;;;5120567;27;20419;-86
2023/08/29 10:04:21;;;;;;;11.50;4.37;;;14.40;99.90;;;;;;5120243;27;20482;-85
2023/08/29 10:06:49;;;;;;;5.70;3.93;;;14.50;99.90;;;;;;5120470;27;20502;-85
2023/08/29 10:09:18;;;;;;;6.20;4.03;;;14.50;99.90;;;;;;5120700;27;20446;-85
2023/08/29 10:11:47;;;;;;;6.87;5.00;;;14.60;99.90;;;;;;5120387;27;20479;-86
2023/08/29 10:14:15;;;;;;;4.83;3.67;;;14.50;99.90;;;;;;5120194;27;20419;-86
2023/08/29 10:16:42;;;;;;;4.00;3.30;;;14.50;99.90;;;;;;5119925;27;20459;-85
2023/08/29 10:19:13;;;;;;;4.40;3.40;;;14.70;99.90;;;;;;5120377;28;20526;-85
2023/08/29 10:21:42;;;;;;;5.37;3.27;;;14.70;99.90;;;;;;5120008;27;20480;-85
2023/08/29 10:24:09;;;;;;;4.80;3.57;;;14.70;99.90;;;;;;5120210;27;20442;-85
2023/08/29 10:26:38;;;;;;;4.07;2.90;;;14.80;99.90;;;;;;5120559;27;20451;-85
2023/08/29 10:29:05;;;;;;;4.57;3.47;;;14.80;99.90;;;;;;5120318;27;20431;-85
2023/08/29 10:31:33;;;;;;;7.10;3.87;;;14.90;99.90;;;;;;5120136;27;20446;-85
2023/08/29 10:34:03;;;;;;;5.90;4.00;;;14.90;99.90;;;;;;5119942;27;20932;-85
2023/08/29 10:36:31;;;;;;;4.87;4.23;;;14.90;99.90;;;;;;5119554;27;20510;-85
2023/08/29 10:38:58;;;;;;;4.97;3.50;;;14.80;99.90;;;;;;5116228;27;20428;-85
2023/08/29 10:41:25;;;;;;;6.40;4.27;;;14.80;99.90;;;;;;5116913;28;20481;-85
2023/08/29 10:44:40;;;;;;;6.70;4.97;;;14.70;99.90;;;;;;5116768;28;20467;-85
2023/08/29 10:47:16;;;;;;;5.87;3.67;;;14.70;99.90;;;;;;5116746;28;20529;-85
2023/08/29 10:49:43;;;;;;;7.47;4.13;;;14.70;99.90;;;;;;5116495;28;20904;-84
2023/08/29 10:52:13;;;;;;;14.17;4.03;;;14.70;99.90;;;;;;5116873;28;20858;-85
2023/08/29 10:54:40;;;;;;;7.77;5.63;;;14.70;99.90;;;;;;5116714;28;20518;-86
2023/08/29 10:57:29;;;;;;;5.90;4.93;;;14.90;99.90;;;;;;5116229;28;20435;-85
2023/08/29 10:59:57;;;;;;;6.13;4.80;;;15.00;99.90;;;;;;5112324;28;20451;-85
2023/08/29 11:02:26;;;;;;;7.13;4.13;;;15.10;99.90;;;;;;5116470;27;20439;-85
2023/08/29 11:04:53;;;;;;;5.37;4.47;;;15.10;99.90;;;;;;5116237;28;20516;-86
2023/08/29 11:07:26;;;;;;;6.87;4.10;;;15.10;99.90;;;;;;5116185;28;20443;-86
2023/08/29 11:10:14;;;;;;;9.00;4.87;;;15.10;99.90;;;;;;5116580;28;20940;-86
2023/08/29 11:13:07;;;;;;;5.67;3.67;;;15.10;99.90;;;;;;5116309;28;20802;-87
2023/08/29 11:16:06;;;;;;;3.93;3.60;;;15.20;99.90;;;;;;5115804;28;20544;-86
2023/08/29 11:18:33;;;;;;;6.17;3.93;;;15.20;99.90;;;;;;5116518;28;20424;-87
2023/08/29 11:21:08;;;;;;;8.17;5.03;;;15.30;99.90;;;;;;5115997;28;20935;-87
2023/08/29 11:23:39;;;;;;;5.90;4.90;;;15.30;99.90;;;;;;5116130;28;20422;-87
2023/08/29 11:26:06;;;;;;;6.37;4.70;;;15.30;99.90;;;;;;5116304;28;20451;-87
2023/08/29 11:28:34;;;;;;;5.77;4.80;;;15.40;99.90;;;;;;5116066;28;20479;-87
2023/08/29 11:31:01;;;;;;;4.43;3.60;;;15.40;99.90;;;;;;5116191;28;20902;-87
2023/08/29 11:33:32;;;;;;;7.03;4.80;;;15.40;99.90;;;;;;5116378;28;20932;-86
2023/08/29 11:36:00;;;;;;;7.07;5.10;;;15.30;99.90;;;;;;5116128;28;20487;-87
2023/08/29 11:38:29;;;;;;;10.60;4.93;;;15.40;99.90;;;;;;5116090;28;20439;-87
2023/08/29 11:40:57;;;;;;;6.00;4.90;;;15.40;99.90;;;;;;5116118;28;20520;-87
2023/08/29 11:43:25;;;;;;;5.90;4.40;;;15.50;99.90;;;;;;5116039;28;20446;-88
2023/08/29 11:45:58;;;;;;;5.97;4.40;;;15.50;99.90;;;;;;5116179;28;20907;-87
2023/08/29 11:48:26;;;;;;;6.40;4.90;;;15.50;99.90;;;;;;5115888;28;20480;-87
2023/08/29 11:50:54;;;;;;;5.97;4.70;;;15.50;99.90;;;;;;5115718;28;20439;-87
2023/08/29 11:53:27;;;;;;;5.10;4.40;;;15.50;99.90;;;;;;5115708;28;20568;-88
2023/08/29 11:55:54;;;;;;;5.30;4.50;;;15.70;99.90;;;;;;5115899;27;20483;-88
2023/08/29 11:58:24;;;;;;;10.27;5.17;;;15.50;99.90;;;;;;5116137;28;20458;-88
2023/08/29 12:00:53;;;;;;;7.30;3.70;;;15.50;99.90;;;;;;5116132;28;20424;-88
2023/08/29 12:03:21;;;;;;;8.30;5.67;;;15.50;99.90;;;;;;5115835;28;20474;-88
2023/08/29 12:05:48;;;;;;;4.47;4.03;;;15.40;99.90;;;;;;5115537;28;20459;-88
2023/08/29 12:08:15;;;;;;;4.90;4.27;;;15.40;99.90;;;;;;5116040;28;20496;-88
2023/08/29 12:10:52;;;;;;;8.33;5.63;;;15.30;99.90;;;;;;5115596;28;20439;-89
2023/08/29 12:13:21;;;;;;;5.00;3.53;;;15.20;99.90;;;;;;5115499;28;20445;-87
2023/08/29 12:15:49;;;;;;;5.33;3.73;;;15.30;99.90;;;;;;5115560;28;20547;-88
2023/08/29 12:18:23;;;;;;;6.77;4.37;;;15.40;99.90;;;;;;5115430;28;20443;-88
2023/08/29 12:20:50;;;;;;;5.17;3.97;;;15.40;99.90;;;;;;5115431;28;20447;-88
2023/08/29 12:23:28;;;;;;;6.67;5.20;;;15.40;99.90;;;;;;5115328;28;20439;-87
2023/08/29 12:25:56;;;;;;;6.70;4.70;;;15.40;99.90;;;;;;5115515;28;20529;-87
2023/08/29 12:28:24;;;;;;;11.13;4.90;;;15.40;99.90;;;;;;5115273;28;20448;-87
2023/08/29 12:30:54;;;;;;;6.33;5.03;;;15.30;99.90;;;;;;5115074;28;20462;-87
2023/08/29 12:33:21;;;;;;;3.97;3.63;;;15.20;99.90;;;;;;5114889;28;20443;-87
2023/08/29 12:35:48;;;;;;;6.27;4.97;;;15.20;99.90;;;;;;5114642;28;20980;-88
2023/08/29 12:38:15;;;;;;;5.70;4.20;;;15.20;99.90;;;;;;5114757;28;20439;-87
2023/08/29 12:40:42;;;;;;;6.70;4.40;;;15.20;99.90;;;;;;5114851;28;20447;-87
2023/08/29 12:43:11;;;;;;;7.13;4.73;;;15.20;99.90;;;;;;5114880;28;20471;-88
2023/08/29 12:45:37;;;;;;;6.03;4.63;;;15.30;99.90;;;;;;5114879;28;20461;-87
2023/08/29 12:48:06;;;;;;;5.13;3.63;;;15.40;99.90;;;;;;5114513;28;20443;-86
2023/08/29 12:50:33;;;;;;;4.47;4.03;;;15.30;99.90;;;;;;5114264;28;20448;-86